Time;durP1;ratioP1;P1;durP2;ratioP2;P2;SDS_P1;SDS_P2;PMS_P1;PMS_P2;Temp;Humidity;BMP_temperature;BMP_pressure;BME280_temperature;BME280_humidity;BME280_pressure;Samples;Min_cycle;Max_cycle;Signal;HPM_P1;HPM_P2
2020/12/10 00:00:22;;;;;;;0.50;0.50;;;2.90;99.90;;;;;;5050717;28;20266;-82
2020/12/10 00:02:48;;;;;;;0.50;0.50;;;3.00;99.90;;;;;;5049630;28;20293;-82
2020/12/10 00:05:15;;;;;;;0.60;0.60;;;2.90;99.90;;;;;;5051031;28;20263;-82
2020/12/10 00:07:41;;;;;;;0.50;0.50;;;3.00;99.90;;;;;;5050291;28;20258;-82
2020/12/10 00:10:09;;;;;;;0.50;0.50;;;3.00;99.90;;;;;;5050259;28;20228;-82
2020/12/10 00:12:40;;;;;;;0.50;0.50;;;2.90;99.90;;;;;;5050431;28;20200;-82
2020/12/10 00:15:07;;;;;;;0.50;0.50;;;2.90;99.90;;;;;;5050555;28;20200;-82
2020/12/10 00:17:36;;;;;;;0.50;0.50;;;3.00;99.90;;;;;;5050160;28;20266;-82
2020/12/10 00:20:03;;;;;;;0.50;0.50;;;2.90;99.90;;;;;;5050164;28;20274;-82
2020/12/10 00:22:32;;;;;;;0.50;0.50;;;2.90;99.90;;;;;;5050145;28;20230;-82
2020/12/10 00:24:59;;;;;;;0.50;0.50;;;3.00;99.90;;;;;;5050166;28;20258;-82
2020/12/10 00:27:25;;;;;;;0.50;0.50;;;2.80;99.90;;;;;;5049949;28;20204;-82
2020/12/10 00:29:56;;;;;;;0.50;0.50;;;2.80;99.90;;;;;;5050054;28;20266;-82
2020/12/10 00:32:23;;;;;;;0.50;0.50;;;2.80;99.90;;;;;;5050004;28;20566;-82
2020/12/10 00:34:49;;;;;;;0.50;0.50;;;2.90;99.90;;;;;;5050366;28;20223;-82
2020/12/10 00:37:17;;;;;;;0.50;0.50;;;2.90;99.90;;;;;;5049846;28;20211;-82
2020/12/10 00:39:43;;;;;;;0.50;0.50;;;2.90;99.90;;;;;;5049962;28;20651;-82
2020/12/10 00:42:09;;;;;;;0.50;0.50;;;2.90;99.90;;;;;;5049745;28;20220;-83
2020/12/10 00:44:36;;;;;;;0.50;0.50;;;2.90;99.90;;;;;;5049537;28;20274;-83
2020/12/10 00:47:03;;;;;;;0.50;0.50;;;2.90;99.90;;;;;;5049744;28;20200;-83
2020/12/10 00:49:29;;;;;;;0.50;0.50;;;2.90;99.90;;;;;;5049700;28;20201;-83
2020/12/10 00:51:55;;;;;;;0.40;0.40;;;2.90;99.90;;;;;;5049722;28;20605;-83
2020/12/10 00:54:21;;;;;;;0.50;0.50;;;2.90;99.90;;;;;;5049447;28;20204;-83
2020/12/10 00:56:48;;;;;;;0.50;0.50;;;2.90;99.90;;;;;;5049605;28;20736;-83
2020/12/10 00:59:14;;;;;;;0.50;0.50;;;2.90;99.90;;;;;;5049491;28;20721;-83
2020/12/10 01:01:42;;;;;;;0.57;0.57;;;2.90;99.90;;;;;;5049352;28;20235;-83
2020/12/10 01:04:10;;;;;;;0.50;0.50;;;2.90;99.90;;;;;;5049319;28;20232;-83
2020/12/10 01:06:36;;;;;;;0.50;0.50;;;2.90;99.90;;;;;;5049251;28;20200;-83
2020/12/10 01:09:05;;;;;;;0.50;0.50;;;2.90;99.90;;;;;;5049268;28;20224;-83
2020/12/10 01:11:31;;;;;;;0.50;0.50;;;2.90;99.90;;;;;;5049278;28;20204;-83
2020/12/10 01:13:57;;;;;;;0.50;0.50;;;2.90;99.90;;;;;;5049116;28;20205;-82
2020/12/10 01:16:24;;;;;;;0.50;0.50;;;2.90;99.90;;;;;;5049135;28;20205;-82
2020/12/10 01:18:51;;;;;;;0.50;0.50;;;2.90;99.90;;;;;;5049204;28;20710;-82
2020/12/10 01:21:28;;;;;;;0.50;0.50;;;2.90;99.90;;;;;;5049059;28;20315;-82
2020/12/10 01:23:54;;;;;;;0.50;0.50;;;2.90;99.90;;;;;;5049056;28;20215;-82
2020/12/10 01:26:20;;;;;;;0.50;0.50;;;2.90;99.90;;;;;;5049064;28;20207;-82
2020/12/10 01:28:46;;;;;;;0.50;0.50;;;2.90;99.90;;;;;;5048898;28;20262;-82
2020/12/10 01:31:12;;;;;;;0.50;0.50;;;2.80;99.90;;;;;;5049016;28;20200;-82
2020/12/10 01:33:39;;;;;;;0.50;0.50;;;2.80;99.90;;;;;;5048764;28;20283;-82
2020/12/10 01:36:05;;;;;;;0.50;0.50;;;2.80;99.90;;;;;;5048854;28;20200;-82
2020/12/10 01:38:32;;;;;;;0.50;0.50;;;2.80;99.90;;;;;;5048962;28;20200;-82
2020/12/10 01:40:58;;;;;;;0.50;0.50;;;2.80;99.90;;;;;;5048702;28;20646;-82
2020/12/10 01:43:24;;;;;;;0.50;0.50;;;2.70;99.90;;;;;;5048788;28;20208;-82
2020/12/10 01:45:50;;;;;;;0.50;0.50;;;2.70;99.90;;;;;;5048768;28;20193;-82
2020/12/10 01:48:16;;;;;;;0.50;0.50;;;2.70;99.90;;;;;;5048771;28;20270;-82
2020/12/10 01:50:42;;;;;;;0.50;0.50;;;2.80;99.90;;;;;;5048696;28;20245;-82
2020/12/10 01:53:09;;;;;;;0.50;0.50;;;2.70;99.90;;;;;;5048811;28;20637;-82
2020/12/10 01:55:36;;;;;;;0.50;0.50;;;2.80;99.90;;;;;;5048629;28;20214;-82
2020/12/10 01:58:02;;;;;;;0.50;0.50;;;2.70;99.90;;;;;;5048906;28;20219;-82
2020/12/10 02:00:28;;;;;;;0.50;0.50;;;2.70;99.90;;;;;;5048787;28;20262;-82
2020/12/10 02:02:55;;;;;;;0.50;0.50;;;2.80;99.90;;;;;;5048582;28;20726;-82
2020/12/10 02:05:22;;;;;;;0.50;0.50;;;2.70;99.90;;;;;;5048692;28;20196;-82
2020/12/10 02:07:48;;;;;;;0.50;0.50;;;2.70;99.90;;;;;;5048841;28;20281;-82
2020/12/10 02:10:14;;;;;;;0.50;0.50;;;2.70;99.90;;;;;;5048642;28;20694;-82
2020/12/10 02:12:42;;;;;;;0.50;0.50;;;2.70;99.90;;;;;;5048590;28;20613;-82
2020/12/10 02:15:09;;;;;;;0.50;0.50;;;2.70;99.90;;;;;;5048924;28;20196;-82
2020/12/10 02:17:43;;;;;;;0.50;0.50;;;2.70;99.90;;;;;;5048509;28;20250;-85
2020/12/10 02:20:09;;;;;;;0.50;0.50;;;2.70;99.90;;;;;;5048584;28;20223;-83
2020/12/10 02:22:35;;;;;;;0.50;0.50;;;2.60;99.90;;;;;;5048240;28;20277;-83
2020/12/10 02:25:03;;;;;;;0.50;0.50;;;2.60;99.90;;;;;;5048401;28;20211;-83
2020/12/10 02:27:29;;;;;;;0.50;0.50;;;2.60;99.90;;;;;;5051553;28;20258;-83
2020/12/10 02:29:58;;;;;;;0.50;0.50;;;2.70;99.90;;;;;;5052279;28;20262;-84
2020/12/10 02:32:24;;;;;;;0.50;0.50;;;2.60;99.90;;;;;;5052177;28;20193;-87
2020/12/10 02:34:50;;;;;;;0.50;0.50;;;2.70;99.90;;;;;;5052100;28;20621;-87
2020/12/10 02:37:16;;;;;;;0.50;0.50;;;2.60;99.90;;;;;;5052356;28;20216;-86
2020/12/10 02:39:42;;;;;;;0.50;0.50;;;2.60;99.90;;;;;;5052083;28;20266;-87
2020/12/10 02:42:12;;;;;;;0.50;0.50;;;2.60;99.90;;;;;;5052281;28;20278;-88
2020/12/10 02:44:38;;;;;;;0.50;0.50;;;2.60;99.90;;;;;;5052035;28;20197;-86
2020/12/10 02:47:04;;;;;;;0.50;0.50;;;2.70;99.90;;;;;;5052342;28;20211;-87
2020/12/10 02:49:30;;;;;;;0.50;0.50;;;2.70;99.90;;;;;;5052013;28;20208;-86
2020/12/10 02:51:57;;;;;;;0.50;0.50;;;2.60;99.90;;;;;;5051910;28;20199;-87
2020/12/10 02:54:23;;;;;;;0.50;0.50;;;2.60;99.90;;;;;;5051961;28;20196;-87
2020/12/10 02:56:52;;;;;;;0.50;0.50;;;2.70;99.90;;;;;;5051829;28;20279;-88
2020/12/10 02:59:19;;;;;;;0.50;0.50;;;2.60;99.90;;;;;;5052097;28;20197;-87
2020/12/10 03:01:45;;;;;;;0.50;0.50;;;2.70;99.90;;;;;;5051569;28;20228;-86
2020/12/10 03:04:11;;;;;;;0.50;0.50;;;2.60;99.90;;;;;;5051687;28;20220;-87
2020/12/10 03:06:37;;;;;;;0.50;0.50;;;2.60;99.90;;;;;;5051681;28;20207;-86
2020/12/10 03:09:03;;;;;;;0.50;0.50;;;2.60;99.90;;;;;;5051993;28;20223;-87
2020/12/10 03:11:30;;;;;;;0.50;0.50;;;2.60;99.90;;;;;;5051584;28;20328;-87
2020/12/10 03:13:59;;;;;;;0.50;0.50;;;2.60;99.90;;;;;;5051793;28;20436;-86
2020/12/10 03:16:26;;;;;;;0.50;0.50;;;3.10;99.90;;;;;;5051641;28;20223;-87
2020/12/10 03:18:52;;;;;;;0.50;0.50;;;2.60;99.90;;;;;;5051285;28;20756;-86
2020/12/10 03:21:18;;;;;;;0.50;0.50;;;2.60;99.90;;;;;;5051397;28;20225;-86
2020/12/10 03:23:45;;;;;;;0.50;0.50;;;2.60;99.90;;;;;;5051407;28;20215;-86
2020/12/10 03:26:11;;;;;;;0.50;0.50;;;2.80;99.90;;;;;;5051587;28;20200;-87
2020/12/10 03:28:37;;;;;;;0.50;0.50;;;2.50;99.90;;;;;;5051311;28;20204;-88
2020/12/10 03:31:03;;;;;;;0.50;0.50;;;2.60;99.90;;;;;;5051442;28;20196;-87
2020/12/10 03:33:30;;;;;;;0.50;0.50;;;2.50;99.90;;;;;;5051186;28;20573;-87
2020/12/10 03:35:59;;;;;;;0.50;0.50;;;2.50;99.90;;;;;;5051328;28;20196;-86
2020/12/10 03:38:25;;;;;;;0.50;0.50;;;2.50;99.90;;;;;;5051104;28;20283;-86
2020/12/10 03:40:52;;;;;;;0.50;0.50;;;2.70;99.90;;;;;;5051192;28;20307;-87
2020/12/10 03:43:20;;;;;;;0.50;0.50;;;2.50;99.90;;;;;;5051085;28;20291;-86
2020/12/10 03:45:46;;;;;;;0.50;0.50;;;2.50;99.90;;;;;;5050912;28;20204;-87
2020/12/10 03:48:12;;;;;;;0.50;0.50;;;2.50;99.90;;;;;;5051031;28;20208;-87
2020/12/10 03:50:39;;;;;;;0.50;0.50;;;2.50;99.90;;;;;;5050859;28;20223;-86
2020/12/10 03:53:06;;;;;;;0.50;0.50;;;2.50;99.90;;;;;;5050897;28;20253;-86
2020/12/10 03:55:33;;;;;;;0.50;0.50;;;2.50;99.90;;;;;;5050675;28;20556;-86
2020/12/10 03:58:02;;;;;;;0.50;0.50;;;2.50;99.90;;;;;;5050986;28;20204;-88
2020/12/10 04:00:31;;;;;;;0.50;0.50;;;2.50;99.90;;;;;;5050716;28;20205;-86
2020/12/10 04:02:57;;;;;;;0.50;0.50;;;2.50;99.90;;;;;;5050670;28;20225;-86
2020/12/10 04:05:24;;;;;;;0.50;0.50;;;2.50;99.90;;;;;;5050834;28;20211;-86
2020/12/10 04:07:51;;;;;;;0.50;0.50;;;2.50;99.90;;;;;;5050705;28;20201;-86
2020/12/10 04:10:17;;;;;;;0.50;0.50;;;2.50;99.90;;;;;;5050765;28;20216;-86
2020/12/10 04:12:43;;;;;;;0.50;0.50;;;2.50;99.90;;;;;;5050434;28;20611;-85
2020/12/10 04:15:09;;;;;;;0.50;0.50;;;2.50;99.90;;;;;;5050661;28;20832;-86
2020/12/10 04:17:35;;;;;;;0.50;0.50;;;2.50;99.90;;;;;;5050239;28;20200;-86
2020/12/10 04:20:02;;;;;;;0.50;0.50;;;2.50;99.90;;;;;;5050417;28;20204;-86
2020/12/10 04:22:28;;;;;;;0.50;0.50;;;2.50;99.90;;;;;;5050163;28;20562;-87
2020/12/10 04:24:55;;;;;;;0.50;0.50;;;2.40;99.90;;;;;;5050195;28;20207;-87
2020/12/10 04:27:22;;;;;;;0.50;0.50;;;2.50;99.90;;;;;;5050044;28;20216;-87
2020/12/10 04:29:48;;;;;;;0.50;0.50;;;2.40;99.90;;;;;;5050440;28;20208;-86
2020/12/10 04:32:15;;;;;;;0.50;0.50;;;2.40;99.90;;;;;;5049991;28;20204;-86
2020/12/10 04:34:41;;;;;;;0.50;0.50;;;2.50;99.90;;;;;;5049863;28;20212;-86
2020/12/10 04:37:07;;;;;;;0.50;0.50;;;2.40;99.90;;;;;;5049949;28;20208;-87
2020/12/10 04:39:33;;;;;;;0.50;0.50;;;2.40;99.90;;;;;;5049756;28;20308;-86
2020/12/10 04:42:07;;;;;;;0.50;0.50;;;2.40;99.90;;;;;;5049732;28;20315;-88
2020/12/10 04:44:33;;;;;;;0.50;0.50;;;2.30;99.90;;;;;;5050011;28;20207;-88
2020/12/10 04:47:01;;;;;;;0.50;0.50;;;2.50;99.90;;;;;;5049814;28;20200;-86
2020/12/10 04:49:29;;;;;;;0.50;0.50;;;2.20;99.90;;;;;;5049213;28;20219;-87
2020/12/10 04:51:56;;;;;;;0.50;0.50;;;2.30;99.90;;;;;;5049784;28;20207;-87
2020/12/10 04:54:23;;;;;;;0.50;0.50;;;2.30;99.90;;;;;;5049798;28;20485;-87
2020/12/10 04:56:53;;;;;;;0.50;0.50;;;2.20;99.90;;;;;;5049771;28;20678;-86
2020/12/10 04:59:20;;;;;;;0.50;0.50;;;2.00;99.90;;;;;;5049818;28;20430;-86
2020/12/10 05:01:46;;;;;;;0.50;0.50;;;2.30;99.90;;;;;;5049874;28;20228;-87
2020/12/10 05:04:15;;;;;;;0.50;0.50;;;2.20;99.90;;;;;;5049488;28;20216;-86
2020/12/10 05:06:50;;;;;;;0.50;0.50;;;2.10;99.90;;;;;;5049339;28;20557;-87
2020/12/10 05:09:17;;;;;;;0.50;0.50;;;2.10;99.90;;;;;;5049531;28;20310;-84
2020/12/10 05:11:43;;;;;;;0.50;0.50;;;2.10;99.90;;;;;;5049109;28;20796;-82
2020/12/10 05:14:12;;;;;;;0.50;0.50;;;2.10;99.90;;;;;;5049229;28;20250;-82
2020/12/10 05:16:39;;;;;;;0.50;0.50;;;2.10;99.90;;;;;;5049109;28;20254;-82
2020/12/10 05:19:19;;;;;;;0.47;0.47;;;2.10;99.90;;;;;;5049240;28;20246;-82
2020/12/10 05:22:02;;;;;;;0.50;0.50;;;2.10;99.90;;;;;;5048871;28;20694;-84
2020/12/10 05:24:31;;;;;;;0.50;0.50;;;2.10;99.90;;;;;;5061599;28;20290;-84
2020/12/10 05:27:17;;;;;;;0.50;0.50;;;2.10;99.90;;;;;;5070982;28;20456;-88
2020/12/10 05:29:44;;;;;;;0.50;0.50;;;2.10;99.90;;;;;;5070729;28;20710;-91
2020/12/10 05:32:29;;;;;;;0.50;0.50;;;2.20;99.90;;;;;;5068830;28;20195;-89
2020/12/10 05:34:55;;;;;;;0.50;0.50;;;2.10;99.90;;;;;;5070503;28;20204;-87
2020/12/10 05:37:29;;;;;;;0.50;0.50;;;2.20;99.90;;;;;;5069302;28;20266;-87
2020/12/10 05:40:00;;;;;;;0.50;0.50;;;2.10;99.90;;;;;;5070201;28;20696;-87
2020/12/10 05:42:35;;;;;;;0.50;0.50;;;2.10;99.90;;;;;;5069744;28;20658;-86
2020/12/10 05:45:10;;;;;;;0.50;0.50;;;2.10;99.90;;;;;;5069631;28;20677;-85
2020/12/10 05:47:41;;;;;;;0.50;0.50;;;2.10;99.90;;;;;;5069943;28;20222;-85
2020/12/10 05:50:07;;;;;;;0.50;0.50;;;2.10;99.90;;;;;;5069735;28;20235;-86
2020/12/10 05:52:37;;;;;;;0.50;0.50;;;2.10;99.90;;;;;;5069570;28;20196;-84
2020/12/10 05:55:03;;;;;;;0.50;0.50;;;2.00;99.90;;;;;;5069727;28;20200;-84
2020/12/10 05:57:29;;;;;;;0.50;0.50;;;2.10;99.90;;;;;;5065903;28;20207;-84
2020/12/10 05:59:56;;;;;;;0.50;0.50;;;2.10;99.90;;;;;;5069828;28;20211;-84
2020/12/10 06:02:24;;;;;;;0.50;0.50;;;2.10;99.90;;;;;;5072973;28;20265;-84
2020/12/10 06:04:53;;;;;;;0.50;0.50;;;2.10;99.90;;;;;;5073648;28;20280;-84
2020/12/10 06:07:19;;;;;;;0.50;0.50;;;2.10;99.90;;;;;;5074316;28;20195;-84
2020/12/10 06:09:46;;;;;;;0.50;0.50;;;2.10;99.90;;;;;;5073849;28;20220;-84
2020/12/10 06:12:12;;;;;;;0.50;0.50;;;2.10;99.90;;;;;;5073897;28;20253;-84
2020/12/10 06:14:50;;;;;;;0.50;0.50;;;2.00;99.90;;;;;;5073589;28;20245;-84
2020/12/10 06:17:17;;;;;;;0.50;0.50;;;2.00;99.90;;;;;;5073867;28;20677;-81
2020/12/10 06:19:43;;;;;;;0.50;0.50;;;2.00;99.90;;;;;;5073513;28;20245;-82
2020/12/10 06:22:26;;;;;;;0.50;0.50;;;2.00;99.90;;;;;;5070540;28;20255;-81
2020/12/10 06:24:54;;;;;;;0.50;0.50;;;2.00;99.90;;;;;;5068601;28;20210;-82
2020/12/10 06:27:29;;;;;;;0.50;0.50;;;2.10;99.90;;;;;;5070631;28;20195;-83
2020/12/10 06:30:15;;;;;;;0.50;0.50;;;2.10;99.90;;;;;;5070992;28;20200;-83
2020/12/10 06:32:43;;;;;;;0.50;0.50;;;2.10;99.90;;;;;;5070117;28;20202;-82
2020/12/10 06:35:24;;;;;;;0.50;0.50;;;2.00;99.90;;;;;;5068702;28;20631;-85
2020/12/10 06:37:53;;;;;;;0.50;0.50;;;1.90;99.90;;;;;;5070401;28;20294;-83
2020/12/10 06:40:35;;;;;;;0.50;0.50;;;1.90;99.90;;;;;;5071893;28;20241;-83
2020/12/10 06:43:02;;;;;;;0.50;0.50;;;1.90;99.90;;;;;;5072308;28;20223;-82
2020/12/10 06:45:34;;;;;;;0.50;0.50;;;1.90;99.90;;;;;;5072097;28;20203;-82
2020/12/10 06:48:01;;;;;;;0.45;0.45;;;2.00;99.90;;;;;;5072354;28;20719;-82
2020/12/10 06:50:30;;;;;;;0.50;0.50;;;1.90;99.90;;;;;;5072170;28;20256;-82
2020/12/10 06:53:18;;;;;;;0.50;0.50;;;1.80;99.90;;;;;;5072463;28;20257;-82
2020/12/10 06:56:04;;;;;;;0.50;0.50;;;1.90;99.90;;;;;;5072284;28;20253;-82
2020/12/10 06:58:50;;;;;;;0.50;0.50;;;1.90;99.90;;;;;;5072183;28;20253;-82
2020/12/10 07:01:20;;;;;;;0.47;0.47;;;1.90;99.90;;;;;;5072170;28;20693;-82
2020/12/10 07:03:47;;;;;;;0.50;0.50;;;1.90;99.90;;;;;;5072069;28;20581;-82
2020/12/10 07:06:18;;;;;;;0.50;0.50;;;1.90;99.90;;;;;;5072148;28;20290;-84
2020/12/10 07:09:00;;;;;;;0.50;0.50;;;1.90;99.90;;;;;;5072109;28;20760;-85
2020/12/10 07:11:31;;;;;;;0.50;0.50;;;1.80;99.90;;;;;;5071754;28;20195;-85
2020/12/10 07:13:57;;;;;;;0.50;0.50;;;1.90;99.90;;;;;;5072152;28;20206;-82
2020/12/10 07:16:32;;;;;;;0.50;0.50;;;1.90;99.90;;;;;;5072280;28;20260;-85
2020/12/10 07:18:58;;;;;;;0.50;0.50;;;1.80;99.90;;;;;;5073020;28;20191;-81
2020/12/10 07:21:25;;;;;;;0.45;0.45;;;1.90;99.90;;;;;;5071755;28;20219;-80
2020/12/10 07:23:51;;;;;;;0.50;0.50;;;1.80;99.90;;;;;;5069996;28;20726;-80
2020/12/10 07:26:18;;;;;;;0.50;0.50;;;1.80;99.90;;;;;;5071659;28;20211;-80
2020/12/10 07:28:47;;;;;;;0.50;0.50;;;1.80;99.90;;;;;;5071271;28;20724;-80
2020/12/10 07:31:14;;;;;;;0.50;0.50;;;1.80;99.90;;;;;;5071562;28;20294;-81
2020/12/10 07:33:40;;;;;;;0.47;0.47;;;1.80;99.90;;;;;;5071198;28;20681;-81
2020/12/10 07:36:07;;;;;;;0.50;0.50;;;1.80;99.90;;;;;;5071462;28;20196;-81
2020/12/10 07:38:33;;;;;;;0.50;0.50;;;1.80;99.90;;;;;;5071671;28;20231;-83
2020/12/10 07:40:59;;;;;;;0.50;0.50;;;1.80;99.90;;;;;;5071380;28;20200;-80
2020/12/10 07:43:27;;;;;;;0.50;0.50;;;1.80;99.90;;;;;;5071445;28;20200;-80
2020/12/10 07:45:54;;;;;;;0.50;0.50;;;1.80;99.90;;;;;;5071217;28;20286;-80
2020/12/10 07:48:20;;;;;;;0.50;0.50;;;1.80;99.90;;;;;;5071261;28;20433;-83
2020/12/10 07:50:48;;;;;;;0.50;0.50;;;1.80;99.90;;;;;;5068943;28;20273;-80
2020/12/10 07:53:14;;;;;;;0.50;0.50;;;1.80;99.90;;;;;;5071383;28;20195;-80
2020/12/10 07:55:44;;;;;;;0.50;0.50;;;1.70;99.90;;;;;;5071189;28;20199;-80
2020/12/10 07:58:23;;;;;;;0.50;0.50;;;1.80;99.90;;;;;;5071046;28;20231;-80
2020/12/10 08:00:52;;;;;;;0.43;0.43;;;1.70;99.90;;;;;;5069337;28;20666;-80
2020/12/10 08:03:27;;;;;;;0.50;0.50;;;1.70;99.90;;;;;;5070849;28;20702;-78
2020/12/10 08:06:04;;;;;;;0.50;0.50;;;1.80;99.90;;;;;;5071271;28;20207;-80
2020/12/10 08:08:37;;;;;;;0.50;0.50;;;1.80;99.90;;;;;;5071263;28;20204;-80
2020/12/10 08:11:12;;;;;;;0.40;0.40;;;1.80;99.90;;;;;;5071366;28;20592;-80
2020/12/10 08:13:56;;;;;;;0.40;0.40;;;1.80;99.90;;;;;;5070810;28;20302;-79
2020/12/10 08:16:23;;;;;;;0.50;0.50;;;1.80;99.90;;;;;;5070888;28;20249;-79
2020/12/10 08:18:49;;;;;;;0.50;0.50;;;1.80;99.90;;;;;;5070521;28;20662;-79
2020/12/10 08:21:30;;;;;;;0.50;0.50;;;1.80;99.90;;;;;;5070523;28;20203;-79
2020/12/10 08:23:59;;;;;;;0.50;0.50;;;1.80;99.90;;;;;;5070076;28;20200;-79
2020/12/10 08:26:25;;;;;;;0.50;0.50;;;1.70;99.90;;;;;;5070618;28;20744;-79
2020/12/10 08:28:53;;;;;;;0.50;0.50;;;1.70;99.90;;;;;;5070630;28;20203;-79
2020/12/10 08:31:23;;;;;;;0.50;0.50;;;1.70;99.90;;;;;;5070716;28;20204;-79
2020/12/10 08:33:53;;;;;;;0.50;0.50;;;1.80;99.90;;;;;;5070521;28;20715;-79
2020/12/10 08:36:30;;;;;;;0.50;0.50;;;1.80;99.90;;;;;;5070277;28;20203;-79
2020/12/10 08:38:58;;;;;;;0.50;0.50;;;1.80;99.90;;;;;;5070481;28;20282;-79
2020/12/10 08:41:27;;;;;;;0.50;0.50;;;1.80;99.90;;;;;;5070384;28;20688;-79
2020/12/10 08:43:56;;;;;;;0.40;0.40;;;1.80;99.90;;;;;;5068761;28;20473;-79
2020/12/10 08:46:23;;;;;;;0.50;0.50;;;1.80;99.90;;;;;;5069079;28;20507;-79
2020/12/10 08:48:49;;;;;;;0.50;0.50;;;1.90;99.90;;;;;;5066858;28;20204;-79
2020/12/10 08:51:16;;;;;;;0.50;0.50;;;1.90;99.90;;;;;;5068253;28;20199;-79
2020/12/10 08:53:49;;;;;;;0.50;0.50;;;1.90;99.90;;;;;;5070175;28;20457;-79
2020/12/10 08:56:21;;;;;;;0.50;0.50;;;1.90;99.90;;;;;;5069932;28;20207;-79
2020/12/10 08:58:48;;;;;;;0.50;0.50;;;1.90;99.90;;;;;;5069867;28;20557;-79
2020/12/10 09:01:14;;;;;;;0.50;0.50;;;1.90;99.90;;;;;;5070016;28;20257;-78
2020/12/10 09:03:40;;;;;;;0.50;0.50;;;1.80;99.90;;;;;;5069484;28;20577;-79
2020/12/10 09:06:06;;;;;;;0.50;0.50;;;1.90;99.90;;;;;;5069547;28;20646;-79
2020/12/10 09:08:33;;;;;;;0.50;0.50;;;1.90;99.90;;;;;;5069691;28;20203;-80
2020/12/10 09:11:01;;;;;;;0.50;0.50;;;1.90;99.90;;;;;;5069928;28;20257;-79
2020/12/10 09:13:27;;;;;;;0.40;0.40;;;1.90;99.90;;;;;;5068872;28;20440;-79
2020/12/10 09:15:54;;;;;;;0.50;0.50;;;2.00;99.90;;;;;;5069581;28;20203;-80
2020/12/10 09:18:20;;;;;;;0.50;0.50;;;1.90;99.90;;;;;;5069609;28;20217;-80
2020/12/10 09:20:46;;;;;;;0.50;0.50;;;1.90;99.90;;;;;;5069168;28;20191;-80
2020/12/10 09:23:12;;;;;;;0.50;0.50;;;1.80;99.90;;;;;;5069506;28;20632;-80
2020/12/10 09:25:40;;;;;;;0.50;0.50;;;1.80;99.90;;;;;;5068912;28;20195;-80
2020/12/10 09:28:08;;;;;;;0.50;0.50;;;1.80;99.90;;;;;;5069065;28;20200;-80
2020/12/10 09:30:34;;;;;;;0.50;0.50;;;1.90;99.90;;;;;;5069348;28;20207;-81
2020/12/10 09:33:01;;;;;;;0.50;0.50;;;1.90;99.90;;;;;;5069465;28;20199;-80
2020/12/10 09:35:27;;;;;;;0.50;0.50;;;1.90;99.90;;;;;;5068734;28;20196;-80
2020/12/10 09:37:53;;;;;;;0.50;0.50;;;1.90;99.90;;;;;;5068867;28;20441;-80
2020/12/10 09:40:19;;;;;;;0.50;0.50;;;1.90;99.90;;;;;;5069137;28;20192;-80
2020/12/10 09:42:48;;;;;;;0.50;0.50;;;1.80;99.90;;;;;;5068919;28;20250;-80
2020/12/10 09:45:14;;;;;;;0.50;0.50;;;1.70;99.90;;;;;;5069086;28;20253;-80
2020/12/10 09:47:42;;;;;;;0.50;0.50;;;1.60;99.90;;;;;;5068956;28;20204;-80
2020/12/10 09:50:18;;;;;;;0.50;0.50;;;1.70;99.90;;;;;;5069557;28;20207;-80
2020/12/10 09:52:50;;;;;;;0.50;0.50;;;1.60;99.90;;;;;;5069239;28;20599;-80
2020/12/10 09:55:27;;;;;;;0.50;0.50;;;1.70;99.90;;;;;;5069584;28;20273;-80
2020/12/10 09:57:54;;;;;;;0.50;0.50;;;1.70;99.90;;;;;;5069250;28;20257;-80
2020/12/10 10:00:22;;;;;;;0.50;0.50;;;1.70;99.90;;;;;;5065018;28;20203;-80
2020/12/10 10:02:48;;;;;;;0.50;0.50;;;1.70;99.90;;;;;;5067768;28;20246;-80
2020/12/10 10:05:14;;;;;;;0.50;0.50;;;1.70;99.90;;;;;;5068187;28;20203;-80
2020/12/10 10:07:40;;;;;;;0.50;0.50;;;1.70;99.90;;;;;;5068206;28;20204;-80
2020/12/10 10:10:06;;;;;;;0.50;0.50;;;1.70;99.90;;;;;;5068179;28;20226;-80
2020/12/10 10:12:33;;;;;;;0.50;0.50;;;1.80;99.90;;;;;;5068148;28;20195;-80
2020/12/10 10:15:00;;;;;;;0.50;0.50;;;1.70;99.90;;;;;;5068485;28;20199;-80
2020/12/10 10:17:26;;;;;;;0.50;0.50;;;1.70;99.90;;;;;;5068251;28;20211;-86
2020/12/10 10:19:52;;;;;;;0.50;0.50;;;1.70;99.90;;;;;;5067995;28;20211;-81
2020/12/10 10:22:18;;;;;;;0.40;0.40;;;1.70;99.90;;;;;;5067778;28;20215;-81
2020/12/10 10:24:45;;;;;;;0.50;0.50;;;1.70;99.90;;;;;;5067573;28;20188;-83
2020/12/10 10:27:11;;;;;;;0.50;0.50;;;1.70;99.90;;;;;;5067703;28;20204;-82
2020/12/10 10:29:40;;;;;;;0.50;0.50;;;1.70;99.90;;;;;;5067528;28;20228;-82
2020/12/10 10:32:07;;;;;;;0.50;0.50;;;1.70;99.90;;;;;;5067937;28;20199;-81
2020/12/10 10:34:34;;;;;;;0.50;0.50;;;1.70;99.90;;;;;;5067562;28;20618;-82
2020/12/10 10:37:00;;;;;;;0.50;0.50;;;1.70;99.90;;;;;;5067851;28;20199;-82
2020/12/10 10:39:26;;;;;;;0.50;0.50;;;1.80;99.90;;;;;;5067965;28;20200;-82
2020/12/10 10:41:52;;;;;;;0.50;0.50;;;1.80;99.90;;;;;;5067567;28;20368;-82
2020/12/10 10:44:18;;;;;;;0.50;0.50;;;1.90;99.90;;;;;;5067625;28;20192;-82
2020/12/10 10:46:44;;;;;;;0.50;0.50;;;1.80;99.90;;;;;;5068008;28;20196;-82
2020/12/10 10:49:15;;;;;;;0.50;0.50;;;1.70;99.90;;;;;;5071086;28;20250;-82
2020/12/10 10:51:41;;;;;;;0.50;0.50;;;1.70;99.90;;;;;;5071198;28;20653;-83
2020/12/10 10:54:07;;;;;;;0.50;0.50;;;1.70;99.90;;;;;;5071345;28;20253;-82
2020/12/10 10:56:33;;;;;;;0.50;0.50;;;1.70;99.90;;;;;;5071113;28;20250;-83
2020/12/10 10:58:59;;;;;;;0.50;0.50;;;1.60;99.90;;;;;;5071790;28;20200;-85
2020/12/10 11:01:27;;;;;;;0.50;0.50;;;1.70;99.90;;;;;;5071279;28;20195;-84
2020/12/10 11:03:53;;;;;;;0.50;0.50;;;1.60;99.90;;;;;;5071223;28;20658;-85
2020/12/10 11:06:20;;;;;;;0.50;0.50;;;1.70;99.90;;;;;;5071227;28;20253;-84
2020/12/10 11:08:47;;;;;;;0.50;0.50;;;1.70;99.90;;;;;;5070987;28;20231;-84
2020/12/10 11:11:17;;;;;;;0.50;0.50;;;1.70;99.90;;;;;;5071150;28;20253;-84
2020/12/10 11:13:43;;;;;;;0.50;0.50;;;1.70;99.90;;;;;;5071251;28;20200;-84
2020/12/10 11:16:09;;;;;;;0.50;0.50;;;1.60;99.90;;;;;;5071204;28;20200;-85
2020/12/10 11:18:35;;;;;;;0.50;0.50;;;1.60;99.90;;;;;;5069299;28;20226;-87
2020/12/10 11:21:02;;;;;;;0.50;0.50;;;1.60;99.90;;;;;;5071513;28;20239;-81
2020/12/10 11:23:29;;;;;;;0.50;0.50;;;1.60;99.90;;;;;;5070831;28;20219;-84
2020/12/10 11:25:55;;;;;;;0.50;0.50;;;1.60;99.90;;;;;;5063211;28;20212;-82
2020/12/10 11:28:21;;;;;;;0.50;0.50;;;1.60;99.90;;;;;;5066109;28;20212;-83
2020/12/10 11:30:47;;;;;;;0.50;0.50;;;1.60;99.90;;;;;;5070005;28;20496;-83
2020/12/10 11:33:13;;;;;;;0.50;0.50;;;1.60;99.90;;;;;;5070491;28;20631;-83
2020/12/10 11:35:40;;;;;;;0.50;0.50;;;1.60;99.90;;;;;;5069751;28;20199;-83
2020/12/10 11:38:06;;;;;;;0.50;0.50;;;1.60;99.90;;;;;;5070083;28;20215;-83
2020/12/10 11:40:33;;;;;;;0.50;0.50;;;1.60;99.90;;;;;;5070362;28;20573;-83
2020/12/10 11:42:59;;;;;;;0.50;0.50;;;1.50;99.90;;;;;;5070376;28;20516;-84
2020/12/10 11:45:25;;;;;;;0.50;0.50;;;1.50;99.90;;;;;;5070430;28;20200;-84
2020/12/10 11:47:51;;;;;;;0.50;0.50;;;1.50;99.90;;;;;;5070220;28;20200;-84
2020/12/10 11:50:21;;;;;;;0.50;0.50;;;1.60;99.90;;;;;;5067353;28;20203;-84
2020/12/10 11:52:48;;;;;;;0.50;0.50;;;1.60;99.90;;;;;;5050048;28;20200;-83
2020/12/10 11:55:15;;;;;;;0.50;0.50;;;1.70;99.90;;;;;;5049470;28;20200;-84
2020/12/10 11:57:42;;;;;;;0.50;0.50;;;1.70;99.90;;;;;;5049936;28;20200;-83
2020/12/10 12:00:10;;;;;;;0.50;0.50;;;1.70;99.90;;;;;;5049118;28;20266;-84
2020/12/10 12:02:40;;;;;;;0.50;0.50;;;1.80;99.90;;;;;;5049920;28;20968;-84
2020/12/10 12:05:07;;;;;;;0.50;0.50;;;1.70;99.90;;;;;;5061585;28;20658;-84
2020/12/10 12:07:33;;;;;;;0.50;0.50;;;1.70;99.90;;;;;;5063022;28;20203;-84
2020/12/10 12:09:59;;;;;;;0.50;0.50;;;1.70;99.90;;;;;;5070003;28;20272;-83
2020/12/10 12:12:25;;;;;;;0.50;0.50;;;1.70;99.90;;;;;;5067966;28;20257;-84
2020/12/10 12:14:52;;;;;;;0.50;0.50;;;1.70;99.90;;;;;;5070365;28;20200;-84
2020/12/10 12:17:18;;;;;;;0.50;0.50;;;1.70;99.90;;;;;;5070613;28;20199;-82
2020/12/10 12:19:44;;;;;;;0.50;0.50;;;1.70;99.90;;;;;;5070366;28;20226;-83
2020/12/10 12:22:11;;;;;;;0.50;0.50;;;1.70;99.90;;;;;;5070690;28;20516;-83
2020/12/10 12:24:37;;;;;;;0.50;0.50;;;1.70;99.90;;;;;;5070466;28;20673;-82
2020/12/10 12:27:04;;;;;;;0.50;0.50;;;1.60;99.90;;;;;;5070374;28;20199;-83
2020/12/10 12:29:31;;;;;;;0.50;0.50;;;1.60;99.90;;;;;;5070397;28;20196;-82
2020/12/10 12:31:58;;;;;;;0.50;0.50;;;1.60;99.90;;;;;;5070645;28;20207;-83
2020/12/10 12:34:24;;;;;;;0.50;0.50;;;1.70;99.90;;;;;;5070338;28;20196;-82
2020/12/10 12:36:50;;;;;;;0.50;0.50;;;1.60;99.90;;;;;;5070104;28;20199;-82
2020/12/10 12:39:16;;;;;;;0.50;0.50;;;1.60;99.90;;;;;;5070330;28;20222;-83
2020/12/10 12:41:42;;;;;;;0.50;0.50;;;1.60;99.90;;;;;;5069868;28;20199;-82
2020/12/10 12:44:08;;;;;;;0.50;0.50;;;1.60;99.90;;;;;;5068965;28;20199;-82
2020/12/10 12:46:35;;;;;;;0.50;0.50;;;1.60;99.90;;;;;;5069977;28;20567;-83
2020/12/10 12:49:02;;;;;;;0.50;0.50;;;1.60;99.90;;;;;;5070077;28;20250;-82
2020/12/10 12:51:28;;;;;;;0.50;0.50;;;1.50;99.90;;;;;;5070057;28;20657;-85
2020/12/10 12:53:55;;;;;;;0.50;0.50;;;1.50;99.90;;;;;;5069002;28;20200;-85
2020/12/10 12:56:21;;;;;;;0.50;0.50;;;1.60;99.90;;;;;;5069975;28;20204;-84
2020/12/10 12:58:48;;;;;;;0.50;0.50;;;1.40;99.90;;;;;;5069753;28;20280;-85
2020/12/10 13:01:15;;;;;;;0.50;0.50;;;1.40;99.90;;;;;;5069540;28;20245;-84